sensor_id;sensor_type;location;lat;lon;timestamp;pressure;altitude;pressure_sealevel;temperature;humidity
13314;BME280;6725;48.112;11.604;2022-11-23T00:02:10;93085.97;;;5.45;100.00
13314;BME280;6725;48.112;11.604;2022-11-23T00:04:35;93083.63;;;5.47;100.00
13314;BME280;6725;48.112;11.604;2022-11-23T00:07:00;93078.94;;;5.47;100.00
13314;BME280;6725;48.112;11.604;2022-11-23T00:09:26;93078.19;;;5.47;100.00
13314;BME280;6725;48.112;11.604;2022-11-23T00:11:51;93075.91;;;5.45;100.00
13314;BME280;6725;48.112;11.604;2022-11-23T00:14:16;93088.34;;;5.43;100.00
13314;BME280;6725;48.112;11.604;2022-11-23T00:16:42;93087.50;;;5.46;100.00
13314;BME280;6725;48.112;11.604;2022-11-23T00:19:08;93085.97;;;5.45;100.00
13314;BME280;6725;48.112;11.604;2022-11-23T00:21:33;93080.56;;;5.45;100.00
13314;BME280;6725;48.112;11.604;2022-11-23T00:23:58;93095.28;;;5.44;100.00
13314;BME280;6725;48.112;11.604;2022-11-23T00:26:24;93083.25;;;5.45;100.00
13314;BME280;6725;48.112;11.604;2022-11-23T00:28:49;93083.63;;;5.47;100.00
13314;BME280;6725;48.112;11.604;2022-11-23T00:31:17;93077.00;;;5.48;100.00
13314;BME280;6725;48.112;11.604;2022-11-23T00:33:47;93082.41;;;5.48;100.00
13314;BME280;6725;48.112;11.604;2022-11-23T00:36:14;93082.84;;;5.46;100.00
13314;BME280;6725;48.112;11.604;2022-11-23T00:38:41;93086.63;;;5.49;100.00
13314;BME280;6725;48.112;11.604;2022-11-23T00:41:12;93080.91;;;5.47;100.00
13314;BME280;6725;48.112;11.604;2022-11-23T00:43:37;93082.41;;;5.48;100.00
13314;BME280;6725;48.112;11.604;2022-11-23T00:46:08;93079.72;;;5.48;100.00
13314;BME280;6725;48.112;11.604;2022-11-23T00:48:34;93080.56;;;5.45;100.00
13314;BME280;6725;48.112;11.604;2022-11-23T00:51:01;93074.84;;;5.43;100.00
13314;BME280;6725;48.112;11.604;2022-11-23T00:53:27;93068.75;;;5.39;100.00
13314;BME280;6725;48.112;11.604;2022-11-23T00:55:53;93072.19;;;5.39;100.00
13314;BME280;6725;48.112;11.604;2022-11-23T00:58:19;93074.47;;;5.41;100.00
13314;BME280;6725;48.112;11.604;2022-11-23T01:00:45;93070.25;;;5.40;100.00
13314;BME280;6725;48.112;11.604;2022-11-23T01:03:10;93076.88;;;5.39;100.00
13314;BME280;6725;48.112;11.604;2022-11-23T01:05:37;93066.78;;;5.39;100.00
13314;BME280;6725;48.112;11.604;2022-11-23T01:08:03;93072.97;;;5.40;100.00
13314;BME280;6725;48.112;11.604;2022-11-23T01:10:29;93072.97;;;5.40;100.00
13314;BME280;6725;48.112;11.604;2022-11-23T01:12:54;93066.91;;;5.36;100.00
13314;BME280;6725;48.112;11.604;2022-11-23T01:15:20;93072.81;;;5.31;100.00
13314;BME280;6725;48.112;11.604;2022-11-23T01:17:45;93071.72;;;5.28;100.00
13314;BME280;6725;48.112;11.604;2022-11-23T01:20:10;93078.75;;;5.26;100.00
13314;BME280;6725;48.112;11.604;2022-11-23T01:22:36;93075.13;;;5.16;100.00
13314;BME280;6725;48.112;11.604;2022-11-23T01:25:01;93083.66;;;5.15;100.00
13314;BME280;6725;48.112;11.604;2022-11-23T01:27:26;93074.53;;;5.09;100.00
13314;BME280;6725;48.112;11.604;2022-11-23T01:29:52;93070.69;;;5.10;100.00
13314;BME280;6725;48.112;11.604;2022-11-23T01:32:17;93083.84;;;5.08;100.00
13314;BME280;6725;48.112;11.604;2022-11-23T01:34:42;93076.94;;;5.07;100.00
13314;BME280;6725;48.112;11.604;2022-11-23T01:37:08;93074.66;;;5.05;100.00
13314;BME280;6725;48.112;11.604;2022-11-23T01:39:33;93065.44;;;5.03;100.00
13314;BME280;6725;48.112;11.604;2022-11-23T01:41:58;93061.53;;;5.04;100.00
13314;BME280;6725;48.112;11.604;2022-11-23T01:46:49;93059.63;;;5.04;100.00
13314;BME280;6725;48.112;11.604;2022-11-23T01:49:15;93061.13;;;5.05;100.00
13314;BME280;6725;48.112;11.604;2022-11-23T01:51:43;93056.81;;;5.08;100.00
13314;BME280;6725;48.112;11.604;2022-11-23T01:54:14;93052.25;;;5.05;100.00
13314;BME280;6725;48.112;11.604;2022-11-23T01:56:45;93053.78;;;5.06;100.00
13314;BME280;6725;48.112;11.604;2022-11-23T01:59:15;93057.22;;;5.06;100.00
13314;BME280;6725;48.112;11.604;2022-11-23T02:01:42;93064.59;;;5.06;100.00
13314;BME280;6725;48.112;11.604;2022-11-23T02:04:11;93053.78;;;5.06;100.00
13314;BME280;6725;48.112;11.604;2022-11-23T02:06:39;93053.31;;;5.07;100.00
13314;BME280;6725;48.112;11.604;2022-11-23T02:09:05;93052.59;;;5.07;100.00
13314;BME280;6725;48.112;11.604;2022-11-23T02:11:32;93052.25;;;5.05;100.00
13314;BME280;6725;48.112;11.604;2022-11-23T02:13:57;93058.06;;;5.03;100.00
13314;BME280;6725;48.112;11.604;2022-11-23T02:16:24;93047.69;;;5.02;100.00
13314;BME280;6725;48.112;11.604;2022-11-23T02:18:50;93045.44;;;5.00;100.00
13314;BME280;6725;48.112;11.604;2022-11-23T02:21:16;93048.13;;;5.00;100.00
13314;BME280;6725;48.112;11.604;2022-11-23T02:26:28;93048.19;;;4.97;100.00
13314;BME280;6725;48.112;11.604;2022-11-23T02:29:07;93036.97;;;4.98;100.00
13314;BME280;6725;48.112;11.604;2022-11-23T02:31:35;93040.09;;;4.97;100.00
13314;BME280;6725;48.112;11.604;2022-11-23T02:34:00;93033.91;;;4.96;100.00
13314;BME280;6725;48.112;11.604;2022-11-23T02:41:55;93039.59;;;4.86;100.00
13314;BME280;6725;48.112;11.604;2022-11-23T02:47:06;93049.06;;;4.78;100.00
13314;BME280;6725;48.112;11.604;2022-11-23T02:49:32;93041.50;;;4.73;100.00
13314;BME280;6725;48.112;11.604;2022-11-23T02:51:58;93042.81;;;4.65;100.00
13314;BME280;6725;48.112;11.604;2022-11-23T02:54:23;93046.03;;;4.60;100.00
13314;BME280;6725;48.112;11.604;2022-11-23T02:56:49;93056.50;;;4.58;100.00
13314;BME280;6725;48.112;11.604;2022-11-23T02:59:14;93051.97;;;4.55;100.00
13314;BME280;6725;48.112;11.604;2022-11-23T03:01:39;93062.41;;;4.53;100.00
13314;BME280;6725;48.112;11.604;2022-11-23T03:04:06;93065.28;;;4.46;100.00
13314;BME280;6725;48.112;11.604;2022-11-23T03:06:31;93060.72;;;4.43;100.00
13314;BME280;6725;48.112;11.604;2022-11-23T03:08:57;93067.00;;;4.40;100.00
13314;BME280;6725;48.112;11.604;2022-11-23T03:11:22;93062.41;;;4.37;100.00
13314;BME280;6725;48.112;11.604;2022-11-23T03:13:48;93059.38;;;4.35;100.00
13314;BME280;6725;48.112;11.604;2022-11-23T03:16:13;93067.16;;;4.33;100.00
13314;BME280;6725;48.112;11.604;2022-11-23T03:18:39;93068.41;;;4.28;100.00
13314;BME280;6725;48.112;11.604;2022-11-23T03:21:05;93069.66;;;4.24;100.00
13314;BME280;6725;48.112;11.604;2022-11-23T03:23:33;93065.09;;;4.21;100.00
13314;BME280;6725;48.112;11.604;2022-11-23T03:25:59;93066.28;;;4.20;100.00
13314;BME280;6725;48.112;11.604;2022-11-23T03:28:25;93061.69;;;4.17;100.00
13314;BME280;6725;48.112;11.604;2022-11-23T03:30:51;93063.72;;;4.13;100.00
13314;BME280;6725;48.112;11.604;2022-11-23T03:33:17;93056.81;;;4.12;100.00
13314;BME280;6725;48.112;11.604;2022-11-23T03:35:43;93051.47;;;4.08;100.00
13314;BME280;6725;48.112;11.604;2022-11-23T03:38:08;93045.34;;;4.08;100.00
13314;BME280;6725;48.112;11.604;2022-11-23T03:40:33;93047.69;;;4.06;100.00
13314;BME280;6725;48.112;11.604;2022-11-23T03:42:59;93038.16;;;4.01;100.00
13314;BME280;6725;48.112;11.604;2022-11-23T03:45:24;93040.16;;;3.97;100.00
13314;BME280;6725;48.112;11.604;2022-11-23T03:47:49;93037.53;;;3.94;100.00
13314;BME280;6725;48.112;11.604;2022-11-23T03:50:15;93033.31;;;3.93;100.00
13314;BME280;6725;48.112;11.604;2022-11-23T03:52:40;93034.94;;;3.90;100.00
13314;BME280;6725;48.112;11.604;2022-11-23T03:55:06;93031.09;;;3.88;100.00
13314;BME280;6725;48.112;11.604;2022-11-23T03:57:32;93017.59;;;3.88;100.00
13314;BME280;6725;48.112;11.604;2022-11-23T03:59:57;93016.44;;;3.89;100.00
13314;BME280;6725;48.112;11.604;2022-11-23T04:02:22;93012.56;;;3.90;100.00
13314;BME280;6725;48.112;11.604;2022-11-23T04:04:48;93004.13;;;3.88;100.00
13314;BME280;6725;48.112;11.604;2022-11-23T04:07:14;92994.91;;;3.85;100.00
13314;BME280;6725;48.112;11.604;2022-11-23T04:09:39;93001.91;;;3.83;100.00
13314;BME280;6725;48.112;11.604;2022-11-23T04:12:05;93000.41;;;3.82;100.00
13314;BME280;6725;48.112;11.604;2022-11-23T04:14:30;92998.88;;;3.81;100.00
13314;BME280;6725;48.112;11.604;2022-11-23T04:16:56;92995.00;;;3.82;100.00
13314;BME280;6725;48.112;11.604;2022-11-23T04:19:21;92986.56;;;3.80;100.00
13314;BME280;6725;48.112;11.604;2022-11-23T04:21:47;92994.34;;;3.78;100.00
13314;BME280;6725;48.112;11.604;2022-11-23T04:24:12;92995.16;;;3.75;100.00
13314;BME280;6725;48.112;11.604;2022-11-23T04:26:37;92978.97;;;3.75;100.00
13314;BME280;6725;48.112;11.604;2022-11-23T04:29:04;92993.63;;;3.74;100.00
13314;BME280;6725;48.112;11.604;2022-11-23T04:31:30;92994.47;;;3.71;100.00
13314;BME280;6725;48.112;11.604;2022-11-23T04:33:56;92991.44;;;3.69;100.00
13314;BME280;6725;48.112;11.604;2022-11-23T04:36:22;92989.16;;;3.67;100.00
13314;BME280;6725;48.112;11.604;2022-11-23T04:38:48;92986.44;;;3.67;100.00
13314;BME280;6725;48.112;11.604;2022-11-23T04:41:13;92995.31;;;3.68;100.00
13314;BME280;6725;48.112;11.604;2022-11-23T04:43:39;92984.59;;;3.64;100.00
13314;BME280;6725;48.112;11.604;2022-11-23T04:46:04;92984.16;;;3.66;100.00
13314;BME280;6725;48.112;11.604;2022-11-23T04:48:29;92976.75;;;3.70;100.00
13314;BME280;6725;48.112;11.604;2022-11-23T04:50:56;92972.53;;;3.69;100.00
13314;BME280;6725;48.112;11.604;2022-11-23T04:53:22;92963.69;;;3.68;100.00
13314;BME280;6725;48.112;11.604;2022-11-23T04:55:47;92962.09;;;3.71;100.00
13314;BME280;6725;48.112;11.604;2022-11-23T04:58:12;92963.63;;;3.72;100.00
13314;BME280;6725;48.112;11.604;2022-11-23T05:00:38;92948.94;;;3.73;100.00
13314;BME280;6725;48.112;11.604;2022-11-23T05:03:03;92952.81;;;3.72;100.00
13314;BME280;6725;48.112;11.604;2022-11-23T05:05:28;92946.59;;;3.75;100.00
13314;BME280;6725;48.112;11.604;2022-11-23T05:07:54;92945.06;;;3.74;100.00
13314;BME280;6725;48.112;11.604;2022-11-23T05:10:20;92936.88;;;3.77;100.00
13314;BME280;6725;48.112;11.604;2022-11-23T05:12:46;92933.78;;;3.79;100.00
13314;BME280;6725;48.112;11.604;2022-11-23T05:15:12;92938.66;;;3.84;100.00
13314;BME280;6725;48.112;11.604;2022-11-23T05:17:38;92933.94;;;3.88;100.00
13314;BME280;6725;48.112;11.604;2022-11-23T05:20:04;92934.28;;;3.90;100.00
13314;BME280;6725;48.112;11.604;2022-11-23T05:22:30;92940.00;;;3.92;100.00
13314;BME280;6725;48.112;11.604;2022-11-23T05:24:55;92938.44;;;3.94;100.00
13314;BME280;6725;48.112;11.604;2022-11-23T05:27:20;92935.47;;;3.89;100.00
13314;BME280;6725;48.112;11.604;2022-11-23T05:29:46;92940.00;;;3.92;100.00
13314;BME280;6725;48.112;11.604;2022-11-23T05:32:11;92932.25;;;3.94;100.00
13314;BME280;6725;48.112;11.604;2022-11-23T05:34:36;92934.44;;;3.99;100.00
13314;BME280;6725;48.112;11.604;2022-11-23T05:37:02;92935.88;;;4.03;100.00
13314;BME280;6725;48.112;11.604;2022-11-23T05:39:27;92932.00;;;4.04;100.00
13314;BME280;6725;48.112;11.604;2022-11-23T05:41:53;92934.28;;;4.06;100.00
13314;BME280;6725;48.112;11.604;2022-11-23T05:44:18;92942.81;;;4.04;100.00
13314;BME280;6725;48.112;11.604;2022-11-23T05:46:44;92941.63;;;4.05;100.00
13314;BME280;6725;48.112;11.604;2022-11-23T05:49:09;92942.06;;;4.04;100.00
13314;BME280;6725;48.112;11.604;2022-11-23T05:51:35;92948.13;;;4.08;100.00
13314;BME280;6725;48.112;11.604;2022-11-23T05:54:00;92937.34;;;4.08;100.00
13314;BME280;6725;48.112;11.604;2022-11-23T05:56:26;92944.25;;;4.09;100.00
13314;BME280;6725;48.112;11.604;2022-11-23T05:58:54;92951.56;;;4.08;100.00
13314;BME280;6725;48.112;11.604;2022-11-23T06:01:19;92960.44;;;4.09;100.00
13314;BME280;6725;48.112;11.604;2022-11-23T06:03:44;92946.69;;;4.03;100.00
13314;BME280;6725;48.112;11.604;2022-11-23T06:06:10;92962.31;;;3.96;100.00
13314;BME280;6725;48.112;11.604;2022-11-23T06:08:35;92966.53;;;3.97;100.00
13314;BME280;6725;48.112;11.604;2022-11-23T06:11:01;92972.41;;;3.92;100.00
13314;BME280;6725;48.112;11.604;2022-11-23T06:13:26;92967.88;;;3.89;100.00
13314;BME280;6725;48.112;11.604;2022-11-23T06:15:52;92971.81;;;3.84;100.00
13314;BME280;6725;48.112;11.604;2022-11-23T06:18:17;92966.31;;;3.88;100.00
13314;BME280;6725;48.112;11.604;2022-11-23T06:20:42;92972.84;;;3.90;100.00
13314;BME280;6725;48.112;11.604;2022-11-23T06:23:08;92970.72;;;3.98;100.00
13314;BME280;6725;48.112;11.604;2022-11-23T06:25:33;92951.00;;;4.01;100.00
13314;BME280;6725;48.112;11.604;2022-11-23T06:28:00;92961.03;;;4.00;100.00
13314;BME280;6725;48.112;11.604;2022-11-23T06:30:27;92959.88;;;4.01;100.00
13314;BME280;6725;48.112;11.604;2022-11-23T06:32:53;92962.06;;;4.06;100.00
13314;BME280;6725;48.112;11.604;2022-11-23T06:35:18;92964.22;;;4.11;100.00
13314;BME280;6725;48.112;11.604;2022-11-23T06:37:46;92968.91;;;4.11;100.00
13314;BME280;6725;48.112;11.604;2022-11-23T06:40:12;92967.03;;;4.08;100.00
13314;BME280;6725;48.112;11.604;2022-11-23T06:42:37;92978.94;;;4.10;100.00
13314;BME280;6725;48.112;11.604;2022-11-23T06:45:03;92972.69;;;4.13;100.00
13314;BME280;6725;48.112;11.604;2022-11-23T06:47:28;92975.81;;;4.12;100.00
13314;BME280;6725;48.112;11.604;2022-11-23T06:49:54;92981.03;;;4.19;100.00
13314;BME280;6725;48.112;11.604;2022-11-23T06:52:19;92974.97;;;4.31;100.00
13314;BME280;6725;48.112;11.604;2022-11-23T06:54:45;92966.97;;;4.72;100.00
13314;BME280;6725;48.112;11.604;2022-11-23T06:57:10;92941.59;;;5.39;100.00
13314;BME280;6725;48.112;11.604;2022-11-23T06:59:35;92956.53;;;5.56;100.00
13314;BME280;6725;48.112;11.604;2022-11-23T07:02:01;92999.91;;;5.40;100.00
13314;BME280;6725;48.112;11.604;2022-11-23T07:04:26;93037.09;;;5.23;100.00
13314;BME280;6725;48.112;11.604;2022-11-23T07:06:51;93076.34;;;5.15;100.00
13314;BME280;6725;48.112;11.604;2022-11-23T07:09:17;93096.19;;;5.09;100.00
13314;BME280;6725;48.112;11.604;2022-11-23T07:11:43;93121.56;;;4.99;100.00
13314;BME280;6725;48.112;11.604;2022-11-23T07:14:08;93147.66;;;4.89;100.00
13314;BME280;6725;48.112;11.604;2022-11-23T07:16:34;93163.81;;;4.93;100.00
13314;BME280;6725;48.112;11.604;2022-11-23T07:18:59;93193.69;;;4.86;100.00
13314;BME280;6725;48.112;11.604;2022-11-23T07:21:24;93205.44;;;4.95;100.00
13314;BME280;6725;48.112;11.604;2022-11-23T07:23:50;93233.25;;;4.96;100.00
13314;BME280;6725;48.112;11.604;2022-11-23T07:26:15;93246.22;;;5.04;100.00
13314;BME280;6725;48.112;11.604;2022-11-23T07:28:41;93275.81;;;5.11;100.00
13314;BME280;6725;48.112;11.604;2022-11-23T07:31:06;93301.66;;;5.12;100.00
13314;BME280;6725;48.112;11.604;2022-11-23T07:33:32;93322.53;;;5.12;100.00
13314;BME280;6725;48.112;11.604;2022-11-23T07:36:00;93332.22;;;5.29;100.00
13314;BME280;6725;48.112;11.604;2022-11-23T07:38:26;93352.88;;;5.39;100.00
13314;BME280;6725;48.112;11.604;2022-11-23T07:40:51;93363.19;;;5.44;100.00
13314;BME280;6725;48.112;11.604;2022-11-23T07:43:17;93384.19;;;5.56;100.00
13314;BME280;6725;48.112;11.604;2022-11-23T07:45:42;93404.16;;;5.62;100.00
13314;BME280;6725;48.112;11.604;2022-11-23T07:48:08;93434.78;;;5.59;100.00
13314;BME280;6725;48.112;11.604;2022-11-23T07:50:36;93454.53;;;5.75;100.00
13314;BME280;6725;48.112;11.604;2022-11-23T07:53:03;93481.19;;;5.96;100.00
13314;BME280;6725;48.112;11.604;2022-11-23T07:55:29;93517.38;;;6.22;100.00
13314;BME280;6725;48.112;11.604;2022-11-23T07:57:56;93543.75;;;6.85;100.00
13314;BME280;6725;48.112;11.604;2022-11-23T08:00:22;93591.56;;;7.28;100.00
13314;BME280;6725;48.112;11.604;2022-11-23T08:02:48;93673.94;;;7.37;100.00
13314;BME280;6725;48.112;11.604;2022-11-23T08:05:14;93757.75;;;7.19;100.00
13314;BME280;6725;48.112;11.604;2022-11-23T08:07:40;93799.78;;;7.47;100.00
13314;BME280;6725;48.112;11.604;2022-11-23T08:10:05;93843.09;;;7.54;100.00
13314;BME280;6725;48.112;11.604;2022-11-23T08:12:30;93891.19;;;7.53;100.00
13314;BME280;6725;48.112;11.604;2022-11-23T08:14:56;93913.47;;;7.45;100.00
13314;BME280;6725;48.112;11.604;2022-11-23T08:17:21;93926.31;;;7.44;100.00
13314;BME280;6725;48.112;11.604;2022-11-23T08:19:47;93951.09;;;7.46;100.00
13314;BME280;6725;48.112;11.604;2022-11-23T08:22:12;93961.25;;;7.42;100.00
13314;BME280;6725;48.112;11.604;2022-11-23T08:24:38;93962.50;;;7.38;100.00
13314;BME280;6725;48.112;11.604;2022-11-23T08:27:03;93978.50;;;7.32;100.00
13314;BME280;6725;48.112;11.604;2022-11-23T08:29:29;93988.34;;;7.26;100.00
13314;BME280;6725;48.112;11.604;2022-11-23T08:31:54;93980.41;;;7.35;100.00
13314;BME280;6725;48.112;11.604;2022-11-23T08:34:20;93980.81;;;7.73;100.00
13314;BME280;6725;48.112;11.604;2022-11-23T08:36:45;93994.94;;;8.03;100.00
13314;BME280;6725;48.112;11.604;2022-11-23T08:39:12;94003.69;;;8.30;100.00
13314;BME280;6725;48.112;11.604;2022-11-23T08:41:39;94021.41;;;8.70;100.00
13314;BME280;6725;48.112;11.604;2022-11-23T08:44:04;94040.56;;;8.83;100.00
13314;BME280;6725;48.112;11.604;2022-11-23T08:46:33;94063.59;;;8.78;100.00
13314;BME280;6725;48.112;11.604;2022-11-23T08:48:58;94062.00;;;9.13;100.00
13314;BME280;6725;48.112;11.604;2022-11-23T08:51:23;94082.84;;;9.35;100.00
13314;BME280;6725;48.112;11.604;2022-11-23T08:53:49;94094.06;;;9.37;100.00
13314;BME280;6725;48.112;11.604;2022-11-23T08:56:14;94099.78;;;9.27;100.00
13314;BME280;6725;48.112;11.604;2022-11-23T08:58:40;94110.41;;;9.21;100.00
13314;BME280;6725;48.112;11.604;2022-11-23T09:01:13;94114.16;;;9.11;100.00
13314;BME280;6725;48.112;11.604;2022-11-23T09:03:39;94117.03;;;9.04;100.00
13314;BME280;6725;48.112;11.604;2022-11-23T09:06:05;94125.19;;;8.88;100.00
13314;BME280;6725;48.112;11.604;2022-11-23T09:08:31;94107.97;;;8.75;100.00
13314;BME280;6725;48.112;11.604;2022-11-23T09:11:04;94112.31;;;8.73;100.00
13314;BME280;6725;48.112;11.604;2022-11-23T09:13:30;94100.16;;;8.77;100.00
13314;BME280;6725;48.112;11.604;2022-11-23T09:15:57;94107.66;;;8.73;100.00
13314;BME280;6725;48.112;11.604;2022-11-23T09:18:23;94098.81;;;8.69;100.00
13314;BME280;6725;48.112;11.604;2022-11-23T09:20:48;94094.22;;;8.82;100.00
13314;BME280;6725;48.112;11.604;2022-11-23T09:23:14;94098.81;;;8.69;100.00
13314;BME280;6725;48.112;11.604;2022-11-23T09:25:39;94100.06;;;8.81;100.00
13314;BME280;6725;48.112;11.604;2022-11-23T09:28:05;94101.06;;;8.90;100.00
13314;BME280;6725;48.112;11.604;2022-11-23T09:30:31;94101.78;;;8.91;100.00
13314;BME280;6725;48.112;11.604;2022-11-23T09:32:56;94102.72;;;8.84;100.00
13314;BME280;6725;48.112;11.604;2022-11-23T09:35:22;94101.22;;;8.83;100.00
13314;BME280;6725;48.112;11.604;2022-11-23T09:37:47;94093.22;;;8.92;100.00
13314;BME280;6725;48.112;11.604;2022-11-23T09:40:18;94088.03;;;8.98;100.00
13314;BME280;6725;48.112;11.604;2022-11-23T09:43:42;94091.59;;;8.95;100.00
13314;BME280;6725;48.112;11.604;2022-11-23T09:45:55;94096.53;;;9.00;100.00
13314;BME280;6725;48.112;11.604;2022-11-23T09:51:04;94104.69;;;10.50;100.00
13314;BME280;6725;48.112;11.604;2022-11-23T09:53:47;94109.09;;;11.10;100.00
13314;BME280;6725;48.112;11.604;2022-11-23T09:56:27;94119.50;;;11.99;100.00
13314;BME280;6725;48.112;11.604;2022-11-23T09:58:56;94112.59;;;12.50;100.00
13314;BME280;6725;48.112;11.604;2022-11-23T10:01:23;94121.34;;;12.88;100.00
13314;BME280;6725;48.112;11.604;2022-11-23T10:03:49;94131.16;;;13.28;100.00
13314;BME280;6725;48.112;11.604;2022-11-23T10:06:22;94127.88;;;13.43;100.00
13314;BME280;6725;48.112;11.604;2022-11-23T10:09:15;94130.09;;;13.35;100.00
13314;BME280;6725;48.112;11.604;2022-11-23T10:16:52;94121.41;;;13.94;100.00
13314;BME280;6725;48.112;11.604;2022-11-23T10:22:20;94118.84;;;12.81;100.00
13314;BME280;6725;48.112;11.604;2022-11-23T10:24:49;94111.16;;;13.19;100.00
13314;BME280;6725;48.112;11.604;2022-11-23T10:27:18;94108.09;;;13.17;100.00
13314;BME280;6725;48.112;11.604;2022-11-23T10:29:44;94107.50;;;12.91;100.00
13314;BME280;6725;48.112;11.604;2022-11-23T10:32:24;94107.03;;;12.41;100.00
13314;BME280;6725;48.112;11.604;2022-11-23T10:35:07;94120.38;;;11.96;100.00
13314;BME280;6725;48.112;11.604;2022-11-23T10:37:38;94115.41;;;11.57;100.00
13314;BME280;6725;48.112;11.604;2022-11-23T10:42:42;94101.03;;;11.19;100.00
13314;BME280;6725;48.112;11.604;2022-11-23T10:45:20;94103.84;;;10.53;100.00
13314;BME280;6725;48.112;11.604;2022-11-23T10:47:55;94103.50;;;10.09;100.00
13314;BME280;6725;48.112;11.604;2022-11-23T10:53:18;94103.72;;;9.70;100.00
13314;BME280;6725;48.112;11.604;2022-11-23T10:55:53;94101.69;;;9.58;100.00
13314;BME280;6725;48.112;11.604;2022-11-23T10:58:25;94105.44;;;9.64;100.00
13314;BME280;6725;48.112;11.604;2022-11-23T11:01:00;94100.72;;;9.52;100.00
13314;BME280;6725;48.112;11.604;2022-11-23T11:03:30;94104.13;;;9.24;100.00
13314;BME280;6725;48.112;11.604;2022-11-23T11:05:57;94096.09;;;9.33;100.00
13314;BME280;6725;48.112;11.604;2022-11-23T11:08:32;94092.81;;;9.26;100.00
13314;BME280;6725;48.112;11.604;2022-11-23T11:11:05;94097.47;;;9.25;100.00
13314;BME280;6725;48.112;11.604;2022-11-23T11:13:32;94097.06;;;9.27;100.00
13314;BME280;6725;48.112;11.604;2022-11-23T11:16:05;94095.34;;;9.17;100.00
13314;BME280;6725;48.112;11.604;2022-11-23T11:18:36;94095.75;;;9.15;100.00
13314;BME280;6725;48.112;11.604;2022-11-23T11:21:16;94091.69;;;9.23;100.00
13314;BME280;6725;48.112;11.604;2022-11-23T11:23:58;94094.25;;;9.14;100.00
13314;BME280;6725;48.112;11.604;2022-11-23T11:26:26;94093.16;;;8.96;100.00
13314;BME280;6725;48.112;11.604;2022-11-23T11:28:54;94098.50;;;8.99;100.00
13314;BME280;6725;48.112;11.604;2022-11-23T11:36:53;94092.56;;;8.69;100.00
13314;BME280;6725;48.112;11.604;2022-11-23T11:39:39;94085.88;;;8.73;100.00
13314;BME280;6725;48.112;11.604;2022-11-23T11:42:15;94083.69;;;8.84;100.00
13314;BME280;6725;48.112;11.604;2022-11-23T11:44:43;94076.97;;;8.89;100.00
13314;BME280;6725;48.112;11.604;2022-11-23T11:47:25;94073.31;;;8.95;100.00
13314;BME280;6725;48.112;11.604;2022-11-23T11:49:55;94073.56;;;8.85;100.00
13314;BME280;6725;48.112;11.604;2022-11-23T11:52:31;94068.22;;;8.97;100.00
13314;BME280;6725;48.112;11.604;2022-11-23T11:55:06;94073.66;;;8.97;100.00
13314;BME280;6725;48.112;11.604;2022-11-23T11:57:48;94070.22;;;8.93;100.00
13314;BME280;6725;48.112;11.604;2022-11-23T12:00:19;94062.59;;;8.88;100.00
13314;BME280;6725;48.112;11.604;2022-11-23T12:02:54;94059.69;;;8.95;100.00
13314;BME280;6725;48.112;11.604;2022-11-23T12:05:26;94057.66;;;8.99;100.00
13314;BME280;6725;48.112;11.604;2022-11-23T12:08:14;94052.31;;;8.96;100.00
13314;BME280;6725;48.112;11.604;2022-11-23T12:13:18;94053.41;;;8.98;100.00
13314;BME280;6725;48.112;11.604;2022-11-23T12:15:47;94059.38;;;9.09;100.00
13314;BME280;6725;48.112;11.604;2022-11-23T12:24:29;94054.06;;;9.34;100.00
13314;BME280;6725;48.112;11.604;2022-11-23T12:29:39;94054.81;;;9.35;100.00
13314;BME280;6725;48.112;11.604;2022-11-23T12:32:52;94047.78;;;9.21;100.00
13314;BME280;6725;48.112;11.604;2022-11-23T12:38:13;94046.84;;;9.12;100.00
13314;BME280;6725;48.112;11.604;2022-11-23T12:46:22;94049.66;;;9.24;100.00
13314;BME280;6725;48.112;11.604;2022-11-23T12:49:14;94048.63;;;9.34;100.00
13314;BME280;6725;48.112;11.604;2022-11-23T12:51:59;94051.16;;;9.41;100.00
13314;BME280;6725;48.112;11.604;2022-11-23T12:54:50;94043.53;;;9.20;100.00
13314;BME280;6725;48.112;11.604;2022-11-23T12:57:31;94042.69;;;9.23;100.00
13314;BME280;6725;48.112;11.604;2022-11-23T13:00:27;94041.81;;;9.26;100.00
13314;BME280;6725;48.112;11.604;2022-11-23T13:08:26;94040.56;;;9.15;100.00
13314;BME280;6725;48.112;11.604;2022-11-23T13:11:15;94037.22;;;9.07;100.00
13314;BME280;6725;48.112;11.604;2022-11-23T13:17:03;94044.72;;;9.03;100.00
13314;BME280;6725;48.112;11.604;2022-11-23T13:19:52;94047.38;;;9.07;100.00
13314;BME280;6725;48.112;11.604;2022-11-23T13:22:26;94039.78;;;9.14;100.00
13314;BME280;6725;48.112;11.604;2022-11-23T13:30:37;94044.03;;;9.15;100.00
13314;BME280;6725;48.112;11.604;2022-11-23T13:40:39;94052.78;;;8.91;100.00
13314;BME280;6725;48.112;11.604;2022-11-23T13:46:02;94044.31;;;8.89;100.00
13314;BME280;6725;48.112;11.604;2022-11-23T13:48:41;94040.72;;;8.92;100.00
13314;BME280;6725;48.112;11.604;2022-11-23T13:51:08;94040.44;;;8.86;100.00
13314;BME280;6725;48.112;11.604;2022-11-23T13:53:34;94041.66;;;8.85;100.00
13314;BME280;6725;48.112;11.604;2022-11-23T14:02:22;94015.97;;;8.70;100.00
13314;BME280;6725;48.112;11.604;2022-11-23T14:04:47;94018.00;;;8.66;100.00
13314;BME280;6725;48.112;11.604;2022-11-23T14:07:18;94016.47;;;8.65;100.00
13314;BME280;6725;48.112;11.604;2022-11-23T14:09:56;94013.75;;;8.65;100.00
13314;BME280;6725;48.112;11.604;2022-11-23T14:12:36;94014.59;;;8.62;100.00
13314;BME280;6725;48.112;11.604;2022-11-23T14:15:14;94025.13;;;8.60;100.00
13314;BME280;6725;48.112;11.604;2022-11-23T14:18:10;94023.97;;;8.61;100.00
13314;BME280;6725;48.112;11.604;2022-11-23T14:23:50;94037.38;;;8.52;100.00
13314;BME280;6725;48.112;11.604;2022-11-23T14:26:33;94027.31;;;8.49;100.00
13314;BME280;6725;48.112;11.604;2022-11-23T14:29:26;94037.88;;;8.47;100.00
13314;BME280;6725;48.112;11.604;2022-11-23T14:32:25;94039.91;;;8.43;100.00
13314;BME280;6725;48.112;11.604;2022-11-23T14:40:44;94042.44;;;8.34;100.00
13314;BME280;6725;48.112;11.604;2022-11-23T14:43:14;94051.78;;;8.33;100.00